createdAt,value
2022-12-11T00:00:07.428Z,24.20
2022-12-11T00:06:16.213Z,24.40
2022-12-11T00:12:24.934Z,24.40
2022-12-11T00:18:33.486Z,24.20
2022-12-11T00:24:43.460Z,24.10
2022-12-11T00:30:57.020Z,23.90
2022-12-11T00:37:07.805Z,24.10
2022-12-11T00:43:18.056Z,24.30
2022-12-11T00:49:25.570Z,24.40
2022-12-11T00:55:32.979Z,24.30
2022-12-11T01:01:43.456Z,24.10
2022-12-11T01:07:56.041Z,24.00
2022-12-11T01:14:04.399Z,24.30
2022-12-11T01:20:14.549Z,24.20
2022-12-11T01:26:24.381Z,24.00
2022-12-11T01:32:33.382Z,23.90
2022-12-11T01:38:42.373Z,23.80
2022-12-11T01:45:31.903Z,23.70
2022-12-11T01:51:41.293Z,23.60
2022-12-11T01:57:53.840Z,23.50
2022-12-11T02:04:04.799Z,23.50
2022-12-11T02:10:15.492Z,23.50
2022-12-11T02:16:23.695Z,23.40
2022-12-11T02:22:41.870Z,23.30
2022-12-11T02:28:52.356Z,23.30
2022-12-11T02:35:09.066Z,23.20
2022-12-11T02:41:18.365Z,23.20
2022-12-11T02:47:28.383Z,23.10
2022-12-11T02:53:39.860Z,23.10
2022-12-11T02:59:52.671Z,23.00
2022-12-11T03:06:03.341Z,23.00
2022-12-11T03:12:14.402Z,23.00
2022-12-11T03:18:24.618Z,23.00
2022-12-11T03:24:36.640Z,23.00
2022-12-11T03:30:46.595Z,22.80
2022-12-11T03:36:55.705Z,22.80
2022-12-11T03:43:04.906Z,22.70
2022-12-11T03:49:16.689Z,22.60
2022-12-11T03:55:24.418Z,22.50
2022-12-11T04:01:31.902Z,22.40
2022-12-11T04:07:42.694Z,22.40
2022-12-11T04:13:55.157Z,22.40
2022-12-11T04:20:21.025Z,22.40
2022-12-11T04:26:28.419Z,22.30
2022-12-11T04:32:38.158Z,22.30
2022-12-11T04:38:49.052Z,22.20
2022-12-11T04:44:58.093Z,22.20
2022-12-11T04:51:07.432Z,22.10
2022-12-11T04:57:17.271Z,22.10
2022-12-11T05:03:26.420Z,22.00
2022-12-11T05:09:37.158Z,21.90
2022-12-11T05:15:47.694Z,21.80
2022-12-11T05:21:58.266Z,21.90
2022-12-11T05:28:10.946Z,21.80
2022-12-11T05:34:18.266Z,21.70
2022-12-11T05:40:29.063Z,21.60
2022-12-11T05:46:41.649Z,21.60
2022-12-11T05:52:51.756Z,21.60
2022-12-11T05:58:59.181Z,21.60
2022-12-11T06:05:13.454Z,21.60
2022-12-11T06:11:24.528Z,21.50
2022-12-11T06:17:35.594Z,21.50
2022-12-11T06:23:48.630Z,21.70
2022-12-11T06:29:58.971Z,21.90
2022-12-11T06:36:14.299Z,21.80
2022-12-11T06:42:26.098Z,21.70
2022-12-11T06:48:35.384Z,21.60
2022-12-11T06:54:48.191Z,21.70
2022-12-11T07:00:59.795Z,22.00
2022-12-11T07:07:10.697Z,21.90
2022-12-11T07:13:21.552Z,21.70
2022-12-11T07:19:30.500Z,21.60
2022-12-11T07:25:43.561Z,21.80
2022-12-11T07:31:54.458Z,22.00
2022-12-11T07:38:05.401Z,21.80
2022-12-11T07:44:15.162Z,21.60
2022-12-11T07:50:25.109Z,21.60
2022-12-11T07:56:36.831Z,21.80
2022-12-11T08:02:44.981Z,21.90
2022-12-11T08:08:55.215Z,21.80
2022-12-11T08:15:04.415Z,21.60
2022-12-11T08:21:19.076Z,21.50
2022-12-11T08:27:28.027Z,21.80
2022-12-11T08:33:38.754Z,21.90
2022-12-11T08:39:49.027Z,21.70
2022-12-11T08:46:01.592Z,21.60
2022-12-11T08:52:15.352Z,21.60
2022-12-11T08:58:27.959Z,21.80
2022-12-11T09:04:35.995Z,21.80
2022-12-11T09:10:45.909Z,21.70
2022-12-11T09:16:56.755Z,21.50
2022-12-11T09:23:06.710Z,21.60
2022-12-11T09:29:16.883Z,21.90
2022-12-11T09:35:28.450Z,21.90
2022-12-11T09:41:44.706Z,21.60
2022-12-11T09:47:55.380Z,21.50
2022-12-11T09:54:07.505Z,21.70
2022-12-11T10:00:30.354Z,21.90
2022-12-11T10:06:41.632Z,21.80
2022-12-11T10:12:54.131Z,21.60
2022-12-11T10:19:05.001Z,21.50
2022-12-11T10:25:23.998Z,21.70
2022-12-11T10:31:36.131Z,21.90
2022-12-11T10:37:45.463Z,21.80
2022-12-11T10:43:57.175Z,21.60
2022-12-11T10:50:06.759Z,21.60
2022-12-11T10:56:15.737Z,21.80
2022-12-11T11:02:30.360Z,21.90
2022-12-11T11:08:44.812Z,21.70
2022-12-11T11:15:16.977Z,21.60
2022-12-11T11:21:25.802Z,21.50
2022-12-11T11:27:38.857Z,21.80
2022-12-11T11:33:52.567Z,21.90
2022-12-11T11:40:04.915Z,21.70
2022-12-11T11:46:18.754Z,21.50
2022-12-11T11:52:28.476Z,21.50
2022-12-11T11:58:40.349Z,21.80
2022-12-11T12:04:49.887Z,21.90
2022-12-11T12:11:00.718Z,21.70
2022-12-11T12:17:15.461Z,21.70
2022-12-11T12:23:37.383Z,21.90
2022-12-11T12:29:49.557Z,22.10
2022-12-11T12:36:05.096Z,22.40
2022-12-11T12:42:12.339Z,22.60
2022-12-11T12:48:20.350Z,22.90
2022-12-11T12:54:29.614Z,23.10
2022-12-11T13:00:38.198Z,23.30
2022-12-11T13:06:51.913Z,23.50
2022-12-11T13:13:02.749Z,23.70
2022-12-11T13:19:31.147Z,23.80
2022-12-11T13:25:51.957Z,23.80
2022-12-11T13:32:06.923Z,23.50
2022-12-11T13:38:23.498Z,23.70
2022-12-11T13:44:40.740Z,23.80
2022-12-11T13:50:50.156Z,23.90
2022-12-11T13:57:05.194Z,23.60
2022-12-11T14:03:16.999Z,23.50
2022-12-11T14:09:24.988Z,23.70
2022-12-11T14:15:38.993Z,23.90
2022-12-11T14:21:59.732Z,24.10
2022-12-11T14:28:15.944Z,24.00
2022-12-11T14:34:27.635Z,23.80
2022-12-11T14:40:38.229Z,23.90
2022-12-11T14:46:51.140Z,24.20
2022-12-11T14:53:02.904Z,24.10
2022-12-11T14:59:20.388Z,23.90
2022-12-11T15:05:37.130Z,23.80
2022-12-11T15:11:44.763Z,24.00
2022-12-11T15:17:56.238Z,24.20
2022-12-11T15:24:10.141Z,24.10
2022-12-11T15:30:35.925Z,23.90
2022-12-11T15:36:47.024Z,23.90
2022-12-11T15:42:57.247Z,24.30
2022-12-11T15:49:04.778Z,24.50
2022-12-11T15:55:13.241Z,24.40
2022-12-11T16:01:24.595Z,24.20
2022-12-11T16:07:33.208Z,23.90
2022-12-11T16:13:43.477Z,24.10
2022-12-11T16:19:54.668Z,24.40
2022-12-11T16:26:06.742Z,24.40
2022-12-11T16:32:15.830Z,24.20
2022-12-11T16:38:27.173Z,24.00
2022-12-11T16:44:39.538Z,24.20
2022-12-11T16:50:50.574Z,24.40
2022-12-11T16:57:07.133Z,24.20
2022-12-11T17:03:15.559Z,24.10
2022-12-11T17:09:25.146Z,24.20
2022-12-11T17:15:33.734Z,24.50
2022-12-11T17:21:48.530Z,24.70
2022-12-11T17:27:58.687Z,24.50
2022-12-11T17:34:09.784Z,24.30
2022-12-11T17:40:21.521Z,24.10
2022-12-11T17:46:30.971Z,24.40
2022-12-11T17:52:43.870Z,24.80
2022-12-11T17:58:48.125Z,24.80
2022-12-11T18:04:56.475Z,24.60
2022-12-11T18:11:10.175Z,24.40
2022-12-11T18:17:19.146Z,24.40
2022-12-11T18:23:29.535Z,24.70
2022-12-11T18:29:38.715Z,24.80
2022-12-11T18:35:47.958Z,24.60
2022-12-11T18:42:31.335Z,24.40
2022-12-11T18:48:10.719Z,24.20
2022-12-11T18:54:20.861Z,24.10
2022-12-11T19:00:32.283Z,24.30
2022-12-11T19:06:42.463Z,24.60
2022-12-11T19:12:54.284Z,24.80
2022-12-11T19:19:08.140Z,24.70
2022-12-11T19:25:21.154Z,24.40
2022-12-11T19:31:32.261Z,24.20
2022-12-11T19:37:43.455Z,24.00
2022-12-11T19:43:56.723Z,24.30
2022-12-11T19:50:04.946Z,24.60
2022-12-11T19:56:17.360Z,24.70
2022-12-11T20:02:24.873Z,24.50
2022-12-11T20:08:47.923Z,24.20
2022-12-11T20:14:44.263Z,24.10
2022-12-11T20:20:55.362Z,24.40
2022-12-11T20:27:08.038Z,24.60
2022-12-11T20:33:20.530Z,24.50
2022-12-11T20:39:32.686Z,24.30
2022-12-11T20:45:41.414Z,24.10
2022-12-11T20:51:51.481Z,24.30
2022-12-11T20:58:02.863Z,24.60
2022-12-11T21:04:10.551Z,24.50
2022-12-11T21:10:22.626Z,24.30
2022-12-11T21:16:32.033Z,24.10
2022-12-11T21:22:41.366Z,24.40
2022-12-11T21:28:51.707Z,24.60
2022-12-11T21:35:01.558Z,24.70
2022-12-11T21:41:15.086Z,24.50
2022-12-11T21:47:25.283Z,24.30
2022-12-11T21:53:33.684Z,24.10
2022-12-11T21:59:42.421Z,24.10
2022-12-11T22:05:53.571Z,24.40
2022-12-11T22:12:03.675Z,24.60
2022-12-11T22:18:13.492Z,24.40
2022-12-11T22:24:22.379Z,24.20
2022-12-11T22:30:33.762Z,24.10
2022-12-11T22:36:44.613Z,24.30
2022-12-11T22:42:52.361Z,24.50
2022-12-11T22:49:03.347Z,24.60
2022-12-11T22:55:14.394Z,24.40
2022-12-11T23:01:25.461Z,24.20
2022-12-11T23:07:36.573Z,24.10
2022-12-11T23:13:45.885Z,24.30
2022-12-11T23:19:56.662Z,24.40
2022-12-11T23:26:06.247Z,24.30
2022-12-11T23:32:14.603Z,24.10
2022-12-11T23:38:25.323Z,24.20
2022-12-11T23:44:34.659Z,24.40
2022-12-11T23:50:42.298Z,24.60
2022-12-11T23:56:53.006Z,24.50
